createdAt,value
2017-07-27T00:00:58.711Z,0
2017-07-27T00:01:59.011Z,0
2017-07-27T00:02:59.010Z,0
2017-07-27T00:03:59.310Z,0
2017-07-27T00:04:59.021Z,0
2017-07-27T00:05:58.979Z,0
2017-07-27T00:06:59.283Z,0
2017-07-27T00:07:58.654Z,0
2017-07-27T00:08:58.947Z,0
2017-07-27T00:09:58.995Z,0
2017-07-27T00:10:58.309Z,0
2017-07-27T00:11:58.616Z,0
2017-07-27T00:12:58.294Z,0
2017-07-27T00:13:58.906Z,0
2017-07-27T00:14:58.899Z,0
2017-07-27T00:15:59.210Z,0
2017-07-27T00:16:58.871Z,0
2017-07-27T00:17:58.295Z,0
2017-07-27T00:18:58.229Z,0
2017-07-27T00:19:58.854Z,0
2017-07-27T00:20:59.168Z,0
2017-07-27T00:21:59.350Z,0
2017-07-27T00:22:58.517Z,0
2017-07-27T00:23:58.819Z,0
2017-07-27T00:24:58.803Z,0
2017-07-27T00:25:58.169Z,0
2017-07-27T00:26:58.465Z,0
2017-07-27T00:27:58.149Z,0
2017-07-27T00:28:58.457Z,0
2017-07-27T00:29:58.466Z,0
2017-07-27T00:30:59.062Z,0
2017-07-27T00:31:58.421Z,0
2017-07-27T00:32:58.723Z,0
2017-07-27T00:33:59.029Z,0
2017-07-27T00:34:58.913Z,0
2017-07-27T00:35:58.071Z,0
2017-07-27T00:36:58.689Z,0
2017-07-27T00:37:58.988Z,0
2017-07-27T00:38:58.677Z,0
2017-07-27T00:39:59.017Z,0
2017-07-27T00:40:58.021Z,0
2017-07-27T00:41:58.326Z,0
2017-07-27T00:42:58.013Z,0
2017-07-27T00:43:58.620Z,0
2017-07-27T00:44:58.304Z,0
2017-07-27T00:45:58.617Z,0
2017-07-27T00:46:58.901Z,0
2017-07-27T00:47:58.272Z,0
2017-07-27T00:48:58.585Z,0
2017-07-27T00:49:58.253Z,0
2017-07-27T00:50:58.563Z,0
2017-07-27T00:51:58.538Z,0
2017-07-27T00:52:58.218Z,0
2017-07-27T00:53:58.215Z,0
2017-07-27T00:54:58.514Z,0
2017-07-27T00:55:57.886Z,0
2017-07-27T00:56:58.495Z,0
2017-07-27T00:57:58.177Z,0
2017-07-27T00:58:58.788Z,0
2017-07-27T00:59:58.459Z,0
2017-07-27T01:00:58.458Z,0
2017-07-27T01:01:58.143Z,0
2017-07-27T01:02:58.455Z,0
2017-07-27T01:03:58.126Z,0
2017-07-27T01:04:58.108Z,0
2017-07-27T01:05:58.714Z,0
2017-07-27T01:06:58.401Z,0
2017-07-27T01:07:57.772Z,0
2017-07-27T01:08:58.071Z,0
2017-07-27T01:09:58.059Z,0
2017-07-27T01:10:58.714Z,0
2017-07-27T01:11:58.036Z,0
2017-07-27T01:12:58.340Z,0
2017-07-27T01:13:58.331Z,0
2017-07-27T01:14:58.247Z,0
2017-07-27T01:15:57.581Z,0
2017-07-27T01:16:57.990Z,0
2017-07-27T01:17:57.979Z,0
2017-07-27T01:18:58.282Z,0
2017-07-27T01:19:57.650Z,0
2017-07-27T01:20:57.952Z,0
2017-07-27T01:21:57.940Z,0
2017-07-27T01:22:58.251Z,0
2017-07-27T01:23:58.235Z,0
2017-07-27T01:24:58.237Z,0
2017-07-27T01:25:57.908Z,0
2017-07-27T01:26:57.886Z,0
2017-07-27T01:27:57.576Z,0
2017-07-27T01:28:57.574Z,0
2017-07-27T01:29:57.554Z,0
2017-07-27T01:30:58.479Z,0
2017-07-27T01:31:57.845Z,0
2017-07-27T01:32:57.829Z,0
2017-07-27T01:33:57.832Z,0
2017-07-27T01:34:58.127Z,0
2017-07-27T01:35:57.799Z,0
2017-07-27T01:36:57.801Z,0
2017-07-27T01:37:58.411Z,0
2017-07-27T01:38:57.778Z,0
2017-07-27T01:39:57.769Z,0
2017-07-27T01:40:58.071Z,0
2017-07-27T01:41:58.060Z,0
2017-07-27T01:42:57.423Z,0
2017-07-27T01:43:58.050Z,0
2017-07-27T01:44:57.403Z,0
2017-07-27T01:45:57.400Z,0
2017-07-27T01:46:57.700Z,0
2017-07-27T01:47:58.318Z,0
2017-07-27T01:48:57.991Z,0
2017-07-27T01:49:57.669Z,0
2017-07-27T01:50:57.346Z,0
2017-07-27T01:51:57.962Z,0
2017-07-27T01:52:57.653Z,0
2017-07-27T01:53:57.621Z,0
2017-07-27T01:54:57.622Z,0
2017-07-27T01:55:57.922Z,0
2017-07-27T01:56:57.603Z,0
2017-07-27T01:57:57.275Z,0
2017-07-27T01:58:57.895Z,0
2017-07-27T01:59:57.908Z,0
2017-07-27T02:00:57.869Z,0
2017-07-27T02:01:57.876Z,0
2017-07-27T02:02:57.850Z,0
2017-07-27T02:03:57.860Z,0
2017-07-27T02:04:57.828Z,0
2017-07-27T02:05:57.832Z,0
2017-07-27T02:06:57.187Z,0
2017-07-27T02:07:57.177Z,0
2017-07-27T02:08:57.819Z,0
2017-07-27T02:09:58.090Z,0
2017-07-27T02:10:57.157Z,0
2017-07-27T02:11:57.457Z,0
2017-07-27T02:12:57.749Z,0
2017-07-27T02:13:57.746Z,0
2017-07-27T02:14:57.747Z,0
2017-07-27T02:15:57.425Z,0
2017-07-27T02:16:58.060Z,0
2017-07-27T02:17:57.393Z,0
2017-07-27T02:18:57.384Z,0
2017-07-27T02:19:57.715Z,0
2017-07-27T02:20:57.037Z,0
2017-07-27T02:21:57.974Z,0
2017-07-27T02:22:57.652Z,0
2017-07-27T02:23:57.642Z,0
2017-07-27T02:24:57.640Z,0
2017-07-27T02:25:57.934Z,0
2017-07-27T02:26:57.292Z,0
2017-07-27T02:27:57.313Z,0
2017-07-27T02:28:57.592Z,0
2017-07-27T02:29:57.893Z,0
2017-07-27T02:30:57.568Z,0
2017-07-27T02:31:57.895Z,0
2017-07-27T02:32:57.234Z,0
2017-07-27T02:33:57.539Z,0
2017-07-27T02:34:57.525Z,0
2017-07-27T02:35:57.204Z,0
2017-07-27T02:36:57.511Z,0
2017-07-27T02:37:57.497Z,0
2017-07-27T02:38:57.482Z,0
2017-07-27T02:39:57.183Z,0
2017-07-27T02:40:56.839Z,0
2017-07-27T02:41:56.838Z,0
2017-07-27T02:42:57.450Z,0
2017-07-27T02:43:56.800Z,0
2017-07-27T02:44:57.106Z,0
2017-07-27T02:45:57.418Z,0
2017-07-27T02:46:57.405Z,0
2017-07-27T02:47:57.388Z,0
2017-07-27T02:48:57.376Z,0
2017-07-27T02:49:57.055Z,0
2017-07-27T02:50:57.699Z,0
2017-07-27T02:51:57.344Z,0
2017-07-27T02:52:57.643Z,0
2017-07-27T02:53:57.041Z,0
2017-07-27T02:54:57.320Z,0
2017-07-27T02:55:57.302Z,0
2017-07-27T02:56:56.972Z,0
2017-07-27T02:57:57.273Z,0
2017-07-27T02:58:56.958Z,0
2017-07-27T02:59:57.565Z,0
2017-07-27T03:00:57.253Z,0
2017-07-27T03:01:56.929Z,0
2017-07-27T03:02:57.227Z,0
2017-07-27T03:03:57.521Z,0
2017-07-27T03:04:56.894Z,0
2017-07-27T03:05:57.184Z,0
2017-07-27T03:06:57.181Z,0
2017-07-27T03:07:57.168Z,0
2017-07-27T03:08:57.183Z,0
2017-07-27T03:09:57.147Z,0
2017-07-27T03:10:56.840Z,0
2017-07-27T03:11:57.130Z,0
2017-07-27T03:12:56.806Z,0
2017-07-27T03:13:57.104Z,0
2017-07-27T03:14:57.615Z,0
2017-07-27T03:15:57.085Z,0
2017-07-27T03:16:56.777Z,0
2017-07-27T03:17:57.060Z,0
2017-07-27T03:18:56.422Z,0
2017-07-27T03:19:57.358Z,0
2017-07-27T03:20:56.404Z,0
2017-07-27T03:21:56.752Z,0
2017-07-27T03:22:57.330Z,0
2017-07-27T03:23:57.316Z,0
2017-07-27T03:24:56.994Z,0
2017-07-27T03:25:56.664Z,0
2017-07-27T03:26:56.652Z,0
2017-07-27T03:27:56.972Z,0
2017-07-27T03:28:56.631Z,0
2017-07-27T03:29:56.945Z,0
2017-07-27T03:30:56.936Z,0
2017-07-27T03:31:56.300Z,0
2017-07-27T03:32:56.606Z,0
2017-07-27T03:33:56.585Z,0
2017-07-27T03:34:56.883Z,0
2017-07-27T03:35:56.556Z,0
2017-07-27T03:36:56.280Z,0
2017-07-27T03:37:56.535Z,0
2017-07-27T03:38:56.246Z,0
2017-07-27T03:39:56.204Z,0
2017-07-27T03:40:56.878Z,0
2017-07-27T03:41:56.809Z,0
2017-07-27T03:42:56.799Z,0
2017-07-27T03:43:55.847Z,0
2017-07-27T03:44:56.783Z,0
2017-07-27T03:45:56.137Z,0
2017-07-27T03:46:56.769Z,0
2017-07-27T03:47:56.736Z,0
2017-07-27T03:48:56.736Z,0
2017-07-27T03:49:56.719Z,0
2017-07-27T03:50:57.026Z,0
2017-07-27T03:51:56.092Z,0
2017-07-27T03:52:56.686Z,0
2017-07-27T03:53:56.053Z,0
2017-07-27T03:54:56.694Z,5
2017-07-27T03:55:56.665Z,5
2017-07-27T03:56:56.334Z,5
2017-07-27T03:57:56.330Z,5
2017-07-27T03:58:56.629Z,5
2017-07-27T03:59:56.614Z,5
2017-07-27T04:00:56.919Z,5
2017-07-27T04:01:55.667Z,5
2017-07-27T04:02:56.583Z,5
2017-07-27T04:03:56.268Z,5
2017-07-27T04:04:56.261Z,5
2017-07-27T04:05:56.554Z,5
2017-07-27T04:06:56.858Z,5
2017-07-27T04:07:56.217Z,5
2017-07-27T04:08:56.518Z,5
2017-07-27T04:09:56.196Z,5
2017-07-27T04:10:56.497Z,5
2017-07-27T04:11:56.806Z,10
2017-07-27T04:12:56.790Z,10
2017-07-27T04:13:56.778Z,10
2017-07-27T04:14:56.767Z,15
2017-07-27T04:15:56.136Z,15
2017-07-27T04:16:56.325Z,15
2017-07-27T04:17:56.449Z,15
2017-07-27T04:18:56.416Z,15
2017-07-27T04:19:55.778Z,15
2017-07-27T04:20:56.086Z,15
2017-07-27T04:21:56.065Z,15
2017-07-27T04:22:55.752Z,15
2017-07-27T04:23:56.355Z,15
2017-07-27T04:24:56.662Z,15
2017-07-27T04:25:56.027Z,15
2017-07-27T04:26:55.702Z,20
2017-07-27T04:27:56.327Z,20
2017-07-27T04:28:55.994Z,20
2017-07-27T04:29:56.301Z,25
2017-07-27T04:30:56.616Z,25
2017-07-27T04:31:56.613Z,25
2017-07-27T04:32:56.014Z,30
2017-07-27T04:33:56.251Z,30
2017-07-27T04:34:55.944Z,25
2017-07-27T04:35:56.568Z,25
2017-07-27T04:36:55.912Z,25
2017-07-27T04:37:55.589Z,30
2017-07-27T04:38:55.897Z,30
2017-07-27T04:39:55.883Z,35
2017-07-27T04:40:55.557Z,35
2017-07-27T04:41:56.175Z,35
2017-07-27T04:42:56.173Z,35
2017-07-27T04:43:55.524Z,35
2017-07-27T04:44:55.828Z,40
2017-07-27T04:45:55.824Z,40
2017-07-27T04:46:55.807Z,40
2017-07-27T04:47:55.805Z,40
2017-07-27T04:48:55.480Z,40
2017-07-27T04:49:56.084Z,40
2017-07-27T04:50:55.469Z,45
2017-07-27T04:51:55.756Z,45
2017-07-27T04:52:55.783Z,50
2017-07-27T04:53:55.736Z,50
2017-07-27T04:54:55.417Z,60
2017-07-27T04:55:56.030Z,60
2017-07-27T04:56:55.709Z,65
2017-07-27T04:57:55.389Z,65
2017-07-27T04:58:56.314Z,60
2017-07-27T04:59:55.997Z,60
2017-07-27T05:00:55.047Z,60
2017-07-27T05:01:55.653Z,60
2017-07-27T05:02:55.955Z,60
2017-07-27T05:03:55.960Z,65
2017-07-27T05:04:55.945Z,55
2017-07-27T05:05:55.611Z,50
2017-07-27T05:06:55.925Z,55
2017-07-27T05:07:55.591Z,50
2017-07-27T05:08:55.585Z,50
2017-07-27T05:09:54.947Z,55
2017-07-27T05:10:55.586Z,50
2017-07-27T05:11:55.861Z,50
2017-07-27T05:12:55.544Z,45
2017-07-27T05:13:55.545Z,45
2017-07-27T05:14:55.720Z,50
2017-07-27T05:15:55.196Z,55
2017-07-27T05:16:55.814Z,55
2017-07-27T05:17:55.825Z,50
2017-07-27T05:18:55.484Z,45
2017-07-27T05:19:55.789Z,45
2017-07-27T05:20:56.095Z,35
2017-07-27T05:21:55.764Z,35
2017-07-27T05:22:55.756Z,35
2017-07-27T05:23:55.739Z,35
2017-07-27T05:24:55.423Z,35
2017-07-27T05:25:55.734Z,40
2017-07-27T05:26:55.091Z,40
2017-07-27T05:27:55.393Z,45
2017-07-27T05:28:55.688Z,50
2017-07-27T05:29:55.385Z,60
2017-07-27T05:30:55.366Z,65
2017-07-27T05:31:55.662Z,70
2017-07-27T05:32:55.962Z,65
2017-07-27T05:33:55.023Z,65
2017-07-27T05:34:55.322Z,70
2017-07-27T05:35:55.310Z,90
2017-07-27T05:36:55.335Z,85
2017-07-27T05:37:55.292Z,85
2017-07-27T05:38:55.597Z,85
2017-07-27T05:39:55.593Z,95
2017-07-27T05:40:55.262Z,90
2017-07-27T05:41:55.882Z,85
2017-07-27T05:42:54.925Z,90
2017-07-27T05:43:55.546Z,95
2017-07-27T05:44:55.540Z,105
2017-07-27T05:45:55.210Z,110
2017-07-27T05:46:55.823Z,120
2017-07-27T05:47:55.191Z,125
2017-07-27T05:48:55.210Z,120
2017-07-27T05:49:55.179Z,120
2017-07-27T05:50:55.474Z,125
2017-07-27T05:51:55.468Z,125
2017-07-27T05:52:55.172Z,130
2017-07-27T05:53:55.130Z,130
2017-07-27T05:54:55.132Z,130
2017-07-27T05:55:55.432Z,130
2017-07-27T05:56:55.111Z,130
2017-07-27T05:57:55.128Z,130
2017-07-27T05:58:55.102Z,125
2017-07-27T05:59:55.710Z,125
2017-07-27T06:00:55.377Z,130
2017-07-27T06:01:55.381Z,130
2017-07-27T06:02:55.680Z,135
2017-07-27T06:03:55.357Z,135
2017-07-27T06:04:55.040Z,135
2017-07-27T06:05:55.342Z,130
2017-07-27T06:06:55.322Z,125
2017-07-27T06:07:55.621Z,110
2017-07-27T06:08:55.622Z,100
2017-07-27T06:09:55.302Z,105
2017-07-27T06:10:55.000Z,105
2017-07-27T06:11:54.971Z,105
2017-07-27T06:12:55.585Z,100
2017-07-27T06:13:55.627Z,90
2017-07-27T06:14:54.627Z,80
2017-07-27T06:15:54.933Z,65
2017-07-27T06:16:54.606Z,65
2017-07-27T06:17:55.228Z,80
2017-07-27T06:18:54.900Z,100
2017-07-27T06:19:55.520Z,100
2017-07-27T06:20:55.201Z,90
2017-07-27T06:21:54.563Z,95
2017-07-27T06:22:55.184Z,100
2017-07-27T06:23:54.545Z,115
2017-07-27T06:24:54.552Z,115
2017-07-27T06:25:54.851Z,125
2017-07-27T06:26:55.141Z,135
2017-07-27T06:27:54.823Z,140
2017-07-27T06:28:55.124Z,130
2017-07-27T06:29:55.429Z,105
2017-07-27T06:30:54.486Z,85
2017-07-27T06:31:55.102Z,75
2017-07-27T06:32:55.087Z,85
2017-07-27T06:33:54.767Z,110
2017-07-27T06:34:55.077Z,120
2017-07-27T06:35:54.749Z,110
2017-07-27T06:36:54.740Z,100
2017-07-27T06:37:55.097Z,120
2017-07-27T06:38:55.089Z,130
2017-07-27T06:39:55.345Z,130
2017-07-27T06:40:54.716Z,130
2017-07-27T06:41:54.697Z,140
2017-07-27T06:42:54.727Z,160
2017-07-27T06:43:54.684Z,180
2017-07-27T06:44:54.670Z,190
2017-07-27T06:45:54.975Z,220
2017-07-27T06:46:54.652Z,220
2017-07-27T06:47:54.656Z,230
2017-07-27T06:48:55.001Z,230
2017-07-27T06:49:54.639Z,225
2017-07-27T06:50:55.250Z,220
2017-07-27T06:51:54.607Z,210
2017-07-27T06:52:54.611Z,190
2017-07-27T06:53:55.214Z,170
2017-07-27T06:54:55.206Z,160
2017-07-27T06:55:55.205Z,175
2017-07-27T06:56:54.638Z,180
2017-07-27T06:57:54.875Z,175
2017-07-27T06:58:54.547Z,175
2017-07-27T06:59:55.170Z,170
2017-07-27T07:00:54.532Z,160
2017-07-27T07:01:55.152Z,155
2017-07-27T07:02:54.827Z,170
2017-07-27T07:03:55.133Z,185
2017-07-27T07:04:54.810Z,205
2017-07-27T07:05:55.128Z,215
2017-07-27T07:06:54.487Z,220
2017-07-27T07:07:54.478Z,215
2017-07-27T07:08:54.776Z,200
2017-07-27T07:09:54.476Z,215
2017-07-27T07:10:54.460Z,210
2017-07-27T07:11:54.135Z,170
2017-07-27T07:12:54.129Z,150
2017-07-27T07:13:54.738Z,135
2017-07-27T07:14:55.164Z,120
2017-07-27T07:15:54.419Z,120
2017-07-27T07:16:54.715Z,150
2017-07-27T07:17:54.706Z,175
2017-07-27T07:18:54.707Z,215
2017-07-27T07:19:54.375Z,220
2017-07-27T07:20:54.065Z,215
2017-07-27T07:21:54.705Z,215
2017-07-27T07:22:54.245Z,230
2017-07-27T07:23:54.667Z,230
2017-07-27T07:24:54.348Z,215
2017-07-27T07:25:54.641Z,210
2017-07-27T07:26:54.949Z,210
2017-07-27T07:27:54.002Z,225
2017-07-27T07:28:54.312Z,220
2017-07-27T07:29:54.299Z,225
2017-07-27T07:30:54.623Z,225
2017-07-27T07:31:54.292Z,225
2017-07-27T07:32:54.589Z,230
2017-07-27T07:33:54.281Z,230
2017-07-27T07:34:54.569Z,215
2017-07-27T07:35:54.249Z,205
2017-07-27T07:36:54.560Z,190
2017-07-27T07:37:54.238Z,205
2017-07-27T07:38:54.859Z,205
2017-07-27T07:39:53.936Z,195
2017-07-27T07:40:54.842Z,205
2017-07-27T07:41:54.209Z,195
2017-07-27T07:42:54.194Z,195
2017-07-27T07:43:53.883Z,200
2017-07-27T07:44:54.179Z,175
2017-07-27T07:45:54.178Z,135
2017-07-27T07:46:54.498Z,125
2017-07-27T07:47:54.496Z,140
2017-07-27T07:48:54.462Z,140
2017-07-27T07:49:54.152Z,110
2017-07-27T07:50:54.128Z,105
2017-07-27T07:51:53.502Z,130
2017-07-27T07:52:54.116Z,170
2017-07-27T07:53:54.428Z,155
2017-07-27T07:54:54.106Z,195
2017-07-27T07:55:54.091Z,190
2017-07-27T07:56:53.469Z,170
2017-07-27T07:57:54.075Z,120
2017-07-27T07:58:54.070Z,90
2017-07-27T07:59:53.758Z,75
2017-07-27T08:00:54.370Z,80
2017-07-27T08:01:54.046Z,95
2017-07-27T08:02:53.412Z,115
2017-07-27T08:03:54.344Z,130
2017-07-27T08:04:54.357Z,110
2017-07-27T08:05:53.701Z,95
2017-07-27T08:06:53.711Z,110
2017-07-27T08:07:53.688Z,115
2017-07-27T08:08:53.363Z,150
2017-07-27T08:09:53.989Z,170
2017-07-27T08:10:53.671Z,220
2017-07-27T08:11:54.610Z,260
2017-07-27T08:12:53.660Z,255
2017-07-27T08:13:53.958Z,215
2017-07-27T08:14:54.028Z,255
2017-07-27T08:15:54.255Z,255
2017-07-27T08:16:54.563Z,275
2017-07-27T08:17:54.241Z,320
2017-07-27T08:18:54.231Z,360
2017-07-27T08:19:54.220Z,255
2017-07-27T08:20:53.900Z,705
2017-07-27T08:21:53.907Z,540
2017-07-27T08:22:53.267Z,230
2017-07-27T08:23:54.185Z,780
2017-07-27T08:24:54.498Z,505
2017-07-27T08:25:54.177Z,615
2017-07-27T08:26:53.861Z,300
2017-07-27T08:27:53.234Z,320
2017-07-27T08:28:54.158Z,755
2017-07-27T08:29:53.849Z,1075
2017-07-27T08:30:54.146Z,1010
2017-07-27T08:31:53.528Z,740
2017-07-27T08:32:53.505Z,485
2017-07-27T08:33:54.140Z,695
2017-07-27T08:34:54.119Z,560
2017-07-27T08:35:53.482Z,1040
2017-07-27T08:36:53.800Z,325
2017-07-27T08:37:54.416Z,400
2017-07-27T08:38:54.091Z,500
2017-07-27T08:39:54.089Z,535
2017-07-27T08:40:54.086Z,965
2017-07-27T08:41:54.427Z,720
2017-07-27T08:42:53.967Z,510
2017-07-27T08:43:54.064Z,435
2017-07-27T08:44:54.070Z,1150
2017-07-27T08:45:54.060Z,1345
2017-07-27T08:46:54.369Z,595
2017-07-27T08:47:53.745Z,495
2017-07-27T08:48:53.736Z,275
2017-07-27T08:49:53.412Z,290
2017-07-27T08:50:53.409Z,260
2017-07-27T08:51:54.024Z,220
2017-07-27T08:52:53.404Z,215
2017-07-27T08:53:53.416Z,265
2017-07-27T08:54:53.696Z,225
2017-07-27T08:55:53.702Z,235
2017-07-27T08:56:53.694Z,155
2017-07-27T08:57:53.687Z,140
2017-07-27T08:58:53.690Z,145
2017-07-27T08:59:53.993Z,145
2017-07-27T09:00:54.033Z,145
2017-07-27T09:01:53.977Z,140
2017-07-27T09:02:53.976Z,160
2017-07-27T09:03:53.342Z,175
2017-07-27T09:04:53.965Z,195
2017-07-27T09:05:53.952Z,195
2017-07-27T09:06:54.009Z,235
2017-07-27T09:07:53.973Z,300
2017-07-27T09:08:53.622Z,260
2017-07-27T09:09:53.304Z,310
2017-07-27T09:10:53.606Z,335
2017-07-27T09:11:53.614Z,440
2017-07-27T09:12:53.593Z,430
2017-07-27T09:13:53.296Z,420
2017-07-27T09:14:54.305Z,455
2017-07-27T09:15:53.587Z,410
2017-07-27T09:16:53.883Z,540
2017-07-27T09:17:53.570Z,480
2017-07-27T09:18:53.558Z,395
2017-07-27T09:19:53.245Z,390
2017-07-27T09:20:53.543Z,380
2017-07-27T09:21:54.216Z,435
2017-07-27T09:22:53.868Z,390
2017-07-27T09:23:53.837Z,405
2017-07-27T09:24:54.154Z,560
2017-07-27T09:25:53.879Z,540
2017-07-27T09:26:53.824Z,540
2017-07-27T09:27:53.404Z,420
2017-07-27T09:28:54.123Z,430
2017-07-27T09:29:53.816Z,525
2017-07-27T09:30:53.487Z,485
2017-07-27T09:31:53.798Z,505
2017-07-27T09:32:53.789Z,500
2017-07-27T09:33:53.787Z,425
2017-07-27T09:34:54.095Z,335
2017-07-27T09:35:53.822Z,325
2017-07-27T09:36:53.471Z,305
2017-07-27T09:37:53.457Z,305
2017-07-27T09:38:53.756Z,310
2017-07-27T09:39:54.068Z,275
2017-07-27T09:40:53.432Z,300
2017-07-27T09:41:53.746Z,420
2017-07-27T09:42:53.116Z,405
2017-07-27T09:43:53.116Z,325
2017-07-27T09:44:53.717Z,210
2017-07-27T09:45:53.400Z,215
2017-07-27T09:46:53.598Z,245
2017-07-27T09:47:54.015Z,295
2017-07-27T09:48:53.379Z,375
2017-07-27T09:49:53.376Z,410
2017-07-27T09:50:53.058Z,375
2017-07-27T09:51:53.989Z,455
2017-07-27T09:52:53.049Z,460
2017-07-27T09:53:53.674Z,400
2017-07-27T09:54:53.046Z,415
2017-07-27T09:55:53.346Z,445
2017-07-27T09:56:53.345Z,430
2017-07-27T09:57:53.644Z,400
2017-07-27T09:58:53.014Z,415
2017-07-27T09:59:53.318Z,400
2017-07-27T10:00:53.010Z,315
2017-07-27T10:01:53.004Z,240
2017-07-27T10:02:52.677Z,215
2017-07-27T10:03:52.989Z,195
2017-07-27T10:04:53.308Z,190
2017-07-27T10:05:53.289Z,155
2017-07-27T10:06:52.973Z,135
2017-07-27T10:07:53.902Z,125
2017-07-27T10:08:52.959Z,120
2017-07-27T10:09:53.893Z,135
2017-07-27T10:10:53.922Z,185
2017-07-27T10:11:53.566Z,255
2017-07-27T10:12:52.935Z,235
2017-07-27T10:13:53.876Z,260
2017-07-27T10:14:53.245Z,305
2017-07-27T10:15:53.236Z,295
2017-07-27T10:16:53.876Z,345
2017-07-27T10:17:53.217Z,415
2017-07-27T10:18:52.906Z,355
2017-07-27T10:19:52.916Z,385
2017-07-27T10:20:53.213Z,425
2017-07-27T10:21:53.505Z,410
2017-07-27T10:22:53.499Z,325
2017-07-27T10:23:52.868Z,295
2017-07-27T10:24:53.188Z,290
2017-07-27T10:25:53.487Z,275
2017-07-27T10:26:53.165Z,275
2017-07-27T10:27:53.473Z,270
2017-07-27T10:28:53.467Z,260
2017-07-27T10:29:53.774Z,275
2017-07-27T10:30:53.149Z,255
2017-07-27T10:31:52.878Z,270
2017-07-27T10:32:53.768Z,290
2017-07-27T10:33:53.448Z,335
2017-07-27T10:34:53.120Z,355
2017-07-27T10:35:53.750Z,370
2017-07-27T10:36:53.479Z,540
2017-07-27T10:37:53.143Z,725
2017-07-27T10:38:53.442Z,615
2017-07-27T10:39:52.786Z,815
2017-07-27T10:40:53.402Z,470
2017-07-27T10:41:53.398Z,745
2017-07-27T10:42:53.400Z,690
2017-07-27T10:43:53.074Z,750
2017-07-27T10:44:53.376Z,1005
2017-07-27T10:45:53.684Z,1090
2017-07-27T10:46:53.117Z,1090
2017-07-27T10:47:53.680Z,1115
2017-07-27T10:48:53.675Z,1010
2017-07-27T10:49:53.058Z,950
2017-07-27T10:50:52.727Z,910
2017-07-27T10:51:53.043Z,530
2017-07-27T10:52:52.719Z,1030
2017-07-27T10:53:53.347Z,1120
2017-07-27T10:54:52.708Z,930
2017-07-27T10:55:53.021Z,930
2017-07-27T10:56:53.332Z,925
2017-07-27T10:57:53.014Z,1135
2017-07-27T10:58:53.012Z,1120
2017-07-27T10:59:53.338Z,640
2017-07-27T11:00:53.324Z,485
2017-07-27T11:01:53.013Z,580
2017-07-27T11:02:53.316Z,925
2017-07-27T11:03:52.683Z,365
2017-07-27T11:04:53.310Z,335
2017-07-27T11:05:53.611Z,295
2017-07-27T11:06:53.301Z,380
2017-07-27T11:07:52.673Z,270
2017-07-27T11:08:52.980Z,215
2017-07-27T11:09:53.603Z,215
2017-07-27T11:10:53.288Z,235
2017-07-27T11:11:52.970Z,305
2017-07-27T11:12:53.284Z,425
2017-07-27T11:13:52.656Z,765
2017-07-27T11:14:53.283Z,300
2017-07-27T11:15:53.494Z,225
2017-07-27T11:16:52.954Z,185
2017-07-27T11:17:52.320Z,190
2017-07-27T11:18:52.997Z,235
2017-07-27T11:19:53.566Z,250
2017-07-27T11:20:53.240Z,270
2017-07-27T11:21:53.243Z,315
2017-07-27T11:22:52.922Z,275
2017-07-27T11:23:52.631Z,225
2017-07-27T11:24:53.244Z,185
2017-07-27T11:25:52.914Z,195
2017-07-27T11:26:53.228Z,220
2017-07-27T11:27:53.210Z,255
2017-07-27T11:28:52.904Z,315
2017-07-27T11:29:53.223Z,395
2017-07-27T11:30:53.512Z,335
2017-07-27T11:31:53.510Z,310
2017-07-27T11:32:52.256Z,295
2017-07-27T11:33:53.183Z,275
2017-07-27T11:34:53.489Z,260
2017-07-27T11:35:52.859Z,315
2017-07-27T11:36:52.898Z,335
2017-07-27T11:37:53.216Z,255
2017-07-27T11:38:53.470Z,245
2017-07-27T11:39:53.151Z,485
2017-07-27T11:40:52.850Z,330
2017-07-27T11:41:53.170Z,310
2017-07-27T11:42:52.836Z,315
2017-07-27T11:43:53.138Z,335
2017-07-27T11:44:53.478Z,250
2017-07-27T11:45:53.126Z,195
2017-07-27T11:46:53.438Z,180
2017-07-27T11:47:52.799Z,185
2017-07-27T11:48:53.422Z,195
2017-07-27T11:49:53.102Z,255
2017-07-27T11:50:53.134Z,330
2017-07-27T11:51:53.094Z,380
2017-07-27T11:52:53.097Z,435
2017-07-27T11:53:53.400Z,490
2017-07-27T11:54:52.763Z,520
2017-07-27T11:55:52.763Z,650
2017-07-27T11:56:52.438Z,655
2017-07-27T11:57:53.109Z,545
2017-07-27T11:58:53.372Z,360
2017-07-27T11:59:52.734Z,380
2017-07-27T12:00:52.732Z,345
2017-07-27T12:01:52.730Z,285
2017-07-27T12:02:53.030Z,260
2017-07-27T12:03:53.050Z,250
2017-07-27T12:04:52.723Z,240
2017-07-27T12:05:52.702Z,245
2017-07-27T12:06:53.043Z,255
2017-07-27T12:07:52.695Z,325
2017-07-27T12:08:52.392Z,410
2017-07-27T12:09:53.005Z,460
2017-07-27T12:10:52.367Z,500
2017-07-27T12:11:52.992Z,815
2017-07-27T12:12:52.698Z,780
2017-07-27T12:13:52.975Z,870
2017-07-27T12:14:52.984Z,635
2017-07-27T12:15:52.662Z,445
2017-07-27T12:16:52.654Z,385
2017-07-27T12:17:52.955Z,510
2017-07-27T12:18:52.968Z,540
2017-07-27T12:19:52.947Z,415
2017-07-27T12:20:52.627Z,385
2017-07-27T12:21:52.944Z,420
2017-07-27T12:22:52.615Z,525
2017-07-27T12:23:52.630Z,500
2017-07-27T12:24:52.303Z,515
2017-07-27T12:25:52.921Z,630
2017-07-27T12:26:52.922Z,700
2017-07-27T12:27:52.907Z,1370
2017-07-27T12:28:53.231Z,1675
2017-07-27T12:29:52.899Z,1620
2017-07-27T12:30:52.896Z,1335
2017-07-27T12:31:52.584Z,1070
2017-07-27T12:32:52.259Z,665
2017-07-27T12:33:52.887Z,680
2017-07-27T12:34:52.565Z,705
2017-07-27T12:35:52.877Z,635
2017-07-27T12:36:52.559Z,645
2017-07-27T12:37:52.870Z,685
2017-07-27T12:38:52.859Z,755
2017-07-27T12:39:52.241Z,845
2017-07-27T12:40:52.550Z,955
2017-07-27T12:41:52.855Z,865
2017-07-27T12:42:52.870Z,675
2017-07-27T12:43:52.844Z,755
2017-07-27T12:44:52.842Z,730
2017-07-27T12:45:53.178Z,740
2017-07-27T12:46:53.188Z,640
2017-07-27T12:47:53.173Z,555
2017-07-27T12:48:52.516Z,505
2017-07-27T12:49:53.137Z,505
2017-07-27T12:50:52.512Z,495
2017-07-27T12:51:52.230Z,505
2017-07-27T12:52:53.126Z,575
2017-07-27T12:53:52.816Z,615
2017-07-27T12:54:52.502Z,685
2017-07-27T12:55:52.495Z,815
2017-07-27T12:56:52.821Z,855
2017-07-27T12:57:52.489Z,1035
2017-07-27T12:58:52.184Z,1495
2017-07-27T12:59:52.815Z,1330
2017-07-27T13:00:53.121Z,1195
2017-07-27T13:01:52.180Z,1005
2017-07-27T13:02:52.484Z,660
2017-07-27T13:03:53.101Z,645
2017-07-27T13:04:52.161Z,730
2017-07-27T13:05:52.468Z,620
2017-07-27T13:06:52.779Z,475
2017-07-27T13:07:52.778Z,355
2017-07-27T13:08:52.151Z,300
2017-07-27T13:09:52.788Z,275
2017-07-27T13:10:52.779Z,260
2017-07-27T13:11:53.103Z,250
2017-07-27T13:12:52.769Z,250
2017-07-27T13:13:52.760Z,245
2017-07-27T13:14:52.769Z,250
2017-07-27T13:15:52.950Z,260
2017-07-27T13:16:52.743Z,265
2017-07-27T13:17:53.074Z,275
2017-07-27T13:18:52.429Z,280
2017-07-27T13:19:52.742Z,280
2017-07-27T13:20:52.103Z,270
2017-07-27T13:21:52.406Z,265
2017-07-27T13:22:52.716Z,265
2017-07-27T13:23:52.154Z,260
2017-07-27T13:24:52.395Z,260
2017-07-27T13:25:52.706Z,265
2017-07-27T13:26:52.392Z,270
2017-07-27T13:27:52.693Z,280
2017-07-27T13:28:52.375Z,290
2017-07-27T13:29:52.104Z,305
2017-07-27T13:30:52.382Z,295
2017-07-27T13:31:52.679Z,330
2017-07-27T13:32:52.372Z,315
2017-07-27T13:33:52.410Z,295
2017-07-27T13:34:52.059Z,275
2017-07-27T13:35:52.360Z,255
2017-07-27T13:36:52.653Z,245
2017-07-27T13:37:52.059Z,240
2017-07-27T13:38:52.634Z,265
2017-07-27T13:39:52.630Z,285
2017-07-27T13:40:52.004Z,340
2017-07-27T13:41:51.700Z,365
2017-07-27T13:42:52.621Z,460
2017-07-27T13:43:52.938Z,1085
2017-07-27T13:44:52.299Z,665
2017-07-27T13:45:52.612Z,960
2017-07-27T13:46:52.298Z,1230
2017-07-27T13:47:52.620Z,1255
2017-07-27T13:48:52.654Z,1260
2017-07-27T13:49:52.601Z,1120
2017-07-27T13:50:51.959Z,615
2017-07-27T13:51:52.887Z,465
2017-07-27T13:52:52.262Z,315
2017-07-27T13:53:52.574Z,260
2017-07-27T13:54:52.257Z,235
2017-07-27T13:55:52.251Z,215
2017-07-27T13:56:52.879Z,205
2017-07-27T13:57:52.553Z,210
2017-07-27T13:58:52.545Z,230
2017-07-27T13:59:52.233Z,270
2017-07-27T14:00:51.930Z,320
2017-07-27T14:01:52.235Z,435
2017-07-27T14:02:52.236Z,460
2017-07-27T14:03:52.539Z,530
2017-07-27T14:04:51.895Z,490
2017-07-27T14:05:52.512Z,545
2017-07-27T14:06:52.224Z,565